createdAt,value
2018-10-06T00:02:09.486Z,6.50
2018-10-06T00:04:37.725Z,6.50
2018-10-06T00:07:06.054Z,6.70
2018-10-06T00:09:34.582Z,6.70
2018-10-06T00:12:02.846Z,6.50
2018-10-06T00:14:31.084Z,6.40
2018-10-06T00:16:59.333Z,6.30
2018-10-06T00:19:27.575Z,6.20
2018-10-06T00:21:55.824Z,6.10
2018-10-06T00:24:24.126Z,6.00
2018-10-06T00:26:52.369Z,6.10
2018-10-06T00:29:20.620Z,6.10
2018-10-06T00:31:48.881Z,6.00
2018-10-06T00:34:17.133Z,5.90
2018-10-06T00:36:45.388Z,5.80
2018-10-06T00:39:13.633Z,5.80
2018-10-06T00:41:41.884Z,5.70
2018-10-06T00:44:10.232Z,5.70
2018-10-06T00:46:38.476Z,5.60
2018-10-06T00:49:06.742Z,5.60
2018-10-06T00:51:34.998Z,5.60
2018-10-06T00:54:03.241Z,5.60
2018-10-06T00:56:31.501Z,5.50
2018-10-06T00:58:59.740Z,5.50
2018-10-06T01:01:27.987Z,5.50
2018-10-06T01:03:56.416Z,5.50
2018-10-06T01:06:24.829Z,5.40
2018-10-06T01:08:53.330Z,5.40
2018-10-06T01:11:21.587Z,5.40
2018-10-06T01:13:49.839Z,5.40
2018-10-06T01:16:18.077Z,5.40
2018-10-06T01:18:46.344Z,5.40
2018-10-06T01:21:14.597Z,5.30
2018-10-06T01:23:42.838Z,5.40
2018-10-06T01:26:11.090Z,5.40
2018-10-06T01:28:39.345Z,5.30
2018-10-06T01:31:07.652Z,5.20
2018-10-06T01:33:35.933Z,5.10
2018-10-06T01:36:04.186Z,5.10
2018-10-06T01:38:32.452Z,5.10
2018-10-06T01:41:00.852Z,5.20
2018-10-06T01:43:29.105Z,5.30
2018-10-06T01:45:57.355Z,5.40
2018-10-06T01:48:25.611Z,5.50
2018-10-06T01:50:53.916Z,5.50
2018-10-06T01:53:22.118Z,5.40
2018-10-06T01:55:58.135Z,5.30
2018-10-06T01:58:26.404Z,5.30
2018-10-06T02:00:54.639Z,5.30
2018-10-06T02:03:22.889Z,5.30
2018-10-06T02:05:51.117Z,5.50
2018-10-06T02:08:19.356Z,5.50
2018-10-06T02:10:47.712Z,5.50
2018-10-06T02:13:16.195Z,5.40
2018-10-06T02:15:44.423Z,5.50
2018-10-06T02:18:12.720Z,5.50
2018-10-06T02:20:40.977Z,5.80
2018-10-06T02:23:09.276Z,5.80
2018-10-06T02:25:37.515Z,5.70
2018-10-06T02:28:05.872Z,5.70
2018-10-06T02:30:34.113Z,5.50
2018-10-06T02:33:02.381Z,5.50
2018-10-06T02:35:30.616Z,5.40
2018-10-06T02:37:58.874Z,5.40
2018-10-06T02:40:27.126Z,5.30
2018-10-06T02:42:55.489Z,5.30
2018-10-06T02:45:23.849Z,5.30
2018-10-06T02:47:52.210Z,5.30
2018-10-06T02:50:20.642Z,5.40
2018-10-06T02:52:49.050Z,5.40
2018-10-06T02:55:17.529Z,5.30
2018-10-06T02:57:45.964Z,5.30
2018-10-06T03:00:14.408Z,5.20
2018-10-06T03:02:42.869Z,5.10
2018-10-06T03:05:11.347Z,5.00
2018-10-06T03:07:39.730Z,5.00
2018-10-06T03:10:08.218Z,5.00
2018-10-06T03:12:36.655Z,5.10
2018-10-06T03:15:05.268Z,5.20
2018-10-06T03:17:33.712Z,5.30
2018-10-06T03:20:02.170Z,5.30
2018-10-06T03:22:30.527Z,5.20
2018-10-06T03:24:58.907Z,5.10
2018-10-06T03:27:27.406Z,5.10
2018-10-06T03:29:55.908Z,5.00
2018-10-06T03:32:24.356Z,5.10
2018-10-06T03:34:52.799Z,5.10
2018-10-06T03:37:21.530Z,5.00
2018-10-06T03:39:49.915Z,5.10
2018-10-06T03:42:18.302Z,5.10
2018-10-06T03:44:46.730Z,5.10
2018-10-06T03:47:15.125Z,5.10
2018-10-06T03:49:43.654Z,5.10
2018-10-06T03:52:12.045Z,5.20
2018-10-06T03:54:40.576Z,5.20
2018-10-06T03:57:08.995Z,5.20
2018-10-06T03:59:37.368Z,5.30
2018-10-06T04:02:05.778Z,5.30
2018-10-06T04:04:34.208Z,5.20
2018-10-06T04:07:02.644Z,5.20
2018-10-06T04:09:31.068Z,5.20
2018-10-06T04:11:59.505Z,5.30
2018-10-06T04:14:27.940Z,5.30
2018-10-06T04:16:56.410Z,5.20
2018-10-06T04:19:24.819Z,5.20
2018-10-06T04:21:53.224Z,5.30
2018-10-06T04:24:21.681Z,5.30
2018-10-06T04:26:50.090Z,5.30
2018-10-06T04:29:18.634Z,5.30
2018-10-06T04:31:47.107Z,5.30
2018-10-06T04:34:15.476Z,5.30
2018-10-06T04:36:43.812Z,5.30
2018-10-06T04:39:13.168Z,5.30
2018-10-06T04:41:41.663Z,5.20
2018-10-06T04:44:10.558Z,5.10
2018-10-06T04:46:39.478Z,5.10
2018-10-06T04:49:08.024Z,5.00
2018-10-06T04:51:36.523Z,4.90
2018-10-06T04:54:04.960Z,4.80
2018-10-06T04:56:33.354Z,4.90
2018-10-06T04:59:01.793Z,4.90
2018-10-06T05:01:30.232Z,4.80
2018-10-06T05:03:58.654Z,4.80
2018-10-06T05:06:27.154Z,4.80
2018-10-06T05:08:55.559Z,4.80
2018-10-06T05:11:23.982Z,4.70
2018-10-06T05:13:54.083Z,4.70
2018-10-06T05:16:22.512Z,4.80
2018-10-06T05:18:50.864Z,4.70
2018-10-06T05:21:19.234Z,4.70
2018-10-06T05:23:47.621Z,4.70
2018-10-06T05:26:16.127Z,4.70
2018-10-06T05:28:44.538Z,4.80
2018-10-06T05:31:12.974Z,4.90
2018-10-06T05:33:41.449Z,4.80
2018-10-06T05:36:09.945Z,4.90
2018-10-06T05:38:38.558Z,4.90
2018-10-06T05:41:07.009Z,5.00
2018-10-06T05:43:35.396Z,5.00
2018-10-06T05:46:03.802Z,5.20
2018-10-06T05:48:32.192Z,5.30
2018-10-06T05:51:00.619Z,5.40
2018-10-06T05:53:28.993Z,5.50
2018-10-06T05:55:57.412Z,5.80
2018-10-06T05:58:25.796Z,6.10
2018-10-06T06:00:54.167Z,6.20
2018-10-06T06:03:22.630Z,6.30
2018-10-06T06:05:51.016Z,6.30
2018-10-06T06:08:19.386Z,6.50
2018-10-06T06:10:47.780Z,6.70
2018-10-06T06:13:16.148Z,6.90
2018-10-06T06:15:44.591Z,7.30
2018-10-06T06:18:12.942Z,7.40
2018-10-06T06:20:41.384Z,7.60
2018-10-06T06:23:09.909Z,7.70
2018-10-06T06:25:38.273Z,7.80
2018-10-06T06:28:06.671Z,8.00
2018-10-06T06:30:35.067Z,8.00
2018-10-06T06:33:03.989Z,8.30
2018-10-06T06:35:32.433Z,8.90
2018-10-06T06:38:00.906Z,9.20
2018-10-06T06:40:29.389Z,9.50
2018-10-06T06:42:57.857Z,10.00
2018-10-06T06:45:26.258Z,10.80
2018-10-06T06:47:54.726Z,11.50
2018-10-06T06:50:23.214Z,11.30
2018-10-06T06:52:51.605Z,11.90
2018-10-06T06:55:20.055Z,11.70
2018-10-06T06:57:48.546Z,12.00
2018-10-06T07:00:17.062Z,12.40
2018-10-06T07:02:45.497Z,13.10
2018-10-06T07:05:14.050Z,14.90
2018-10-06T07:07:42.497Z,15.40
2018-10-06T07:10:10.939Z,15.60
2018-10-06T07:12:39.338Z,15.40
2018-10-06T07:15:07.873Z,14.50
2018-10-06T07:17:36.410Z,14.10
2018-10-06T07:20:04.997Z,15.10
2018-10-06T07:22:33.337Z,16.10
2018-10-06T07:25:01.808Z,15.90
2018-10-06T07:27:30.272Z,14.60
2018-10-06T07:29:58.823Z,13.70
2018-10-06T07:32:27.497Z,13.40
2018-10-06T07:34:55.944Z,13.80
2018-10-06T07:37:24.824Z,13.60
2018-10-06T07:39:53.560Z,14.30
2018-10-06T07:42:21.990Z,13.90
2018-10-06T07:44:50.776Z,14.60
2018-10-06T07:47:19.188Z,15.30
2018-10-06T07:49:47.622Z,15.20
2018-10-06T07:52:16.069Z,16.80
2018-10-06T07:54:44.565Z,17.10
2018-10-06T07:57:13.160Z,18.00
2018-10-06T07:59:42.190Z,17.60
2018-10-06T08:02:10.894Z,17.80
2018-10-06T08:04:39.368Z,17.40
2018-10-06T08:07:07.884Z,16.30
2018-10-06T08:09:36.309Z,16.00
2018-10-06T08:12:05.027Z,16.00
2018-10-06T08:14:33.402Z,16.70
2018-10-06T08:17:01.866Z,17.20
2018-10-06T08:19:30.534Z,17.40
2018-10-06T08:21:58.912Z,18.40
2018-10-06T08:24:27.550Z,17.90
2018-10-06T08:26:56.188Z,18.60
2018-10-06T08:29:24.950Z,19.30
2018-10-06T08:31:53.538Z,19.50
2018-10-06T08:34:21.981Z,20.00
2018-10-06T08:36:50.640Z,19.80
2018-10-06T08:39:19.001Z,18.70
2018-10-06T08:41:47.508Z,18.50
2018-10-06T08:44:16.015Z,19.00
2018-10-06T08:46:44.652Z,20.80
2018-10-06T08:49:13.240Z,22.10
2018-10-06T08:51:41.738Z,22.20
2018-10-06T08:54:10.316Z,23.30
2018-10-06T08:56:38.850Z,21.80
2018-10-06T08:59:07.695Z,20.80
2018-10-06T09:01:36.557Z,21.70
2018-10-06T09:04:05.021Z,21.40
2018-10-06T09:06:33.534Z,24.80
2018-10-06T09:09:01.968Z,27.00
2018-10-06T09:11:30.477Z,25.30
2018-10-06T09:13:58.865Z,22.40
2018-10-06T09:16:27.814Z,22.00
2018-10-06T09:18:56.765Z,23.90
2018-10-06T09:21:25.529Z,25.50
2018-10-06T09:23:54.420Z,28.10
2018-10-06T09:26:22.981Z,28.30
2018-10-06T09:28:51.723Z,28.80
2018-10-06T09:31:20.294Z,29.80
2018-10-06T09:33:48.948Z,29.20
2018-10-06T09:36:17.377Z,28.40
2018-10-06T09:38:45.880Z,25.70
2018-10-06T09:41:14.324Z,26.40
2018-10-06T09:43:42.793Z,27.10
2018-10-06T09:46:12.583Z,26.50
2018-10-06T09:48:42.136Z,26.50
2018-10-06T09:51:11.969Z,26.70
2018-10-06T09:53:40.611Z,24.80
2018-10-06T09:56:09.093Z,24.80
2018-10-06T09:58:37.568Z,24.60
2018-10-06T10:01:11.508Z,22.80
2018-10-06T10:03:45.312Z,23.70
2018-10-06T10:06:13.672Z,24.20
2018-10-06T10:08:42.153Z,24.40
2018-10-06T10:11:10.698Z,24.50
2018-10-06T10:13:39.261Z,26.80
2018-10-06T10:16:07.581Z,26.20
2018-10-06T10:18:36.073Z,24.80
2018-10-06T10:21:04.381Z,26.00
2018-10-06T10:23:32.899Z,27.30
2018-10-06T10:26:01.269Z,27.50
2018-10-06T10:28:29.852Z,26.00
2018-10-06T10:30:58.203Z,24.20
2018-10-06T10:33:26.573Z,24.40
2018-10-06T10:35:54.910Z,24.40
2018-10-06T10:38:23.296Z,25.50
2018-10-06T10:40:52.750Z,26.30
2018-10-06T10:43:21.144Z,26.20
2018-10-06T10:45:49.513Z,26.10
2018-10-06T10:48:17.837Z,25.70
2018-10-06T10:50:46.136Z,26.20
2018-10-06T10:53:14.336Z,24.50
2018-10-06T10:55:43.024Z,25.50
2018-10-06T10:58:11.235Z,26.50
2018-10-06T11:00:39.589Z,28.90
2018-10-06T11:03:07.808Z,28.80
2018-10-06T11:05:36.057Z,28.10
2018-10-06T11:08:04.348Z,26.40
2018-10-06T11:10:32.620Z,26.80
2018-10-06T11:13:01.129Z,26.40
2018-10-06T11:15:29.415Z,25.70
2018-10-06T11:17:57.860Z,24.80
2018-10-06T11:20:26.127Z,25.20
2018-10-06T11:22:54.395Z,25.90
2018-10-06T11:25:22.697Z,25.60
2018-10-06T11:27:51.008Z,26.00
2018-10-06T11:30:19.379Z,25.00
2018-10-06T11:32:47.777Z,25.40
2018-10-06T11:35:16.160Z,26.40
2018-10-06T11:37:44.466Z,26.60
2018-10-06T11:40:12.669Z,26.10
2018-10-06T11:42:40.925Z,26.00
2018-10-06T11:45:09.415Z,26.80
2018-10-06T11:47:37.664Z,26.00
2018-10-06T11:50:06.094Z,26.30
2018-10-06T11:52:34.792Z,26.10
2018-10-06T11:55:04.141Z,26.10
2018-10-06T11:57:32.543Z,26.50
2018-10-06T12:00:01.183Z,27.10
2018-10-06T12:02:29.399Z,28.10
2018-10-06T12:04:58.712Z,29.30
2018-10-06T12:07:37.031Z,30.60
2018-10-06T12:10:05.866Z,31.20
2018-10-06T12:12:34.168Z,32.40
2018-10-06T12:15:02.477Z,31.30
2018-10-06T12:17:30.745Z,31.70
2018-10-06T12:19:59.048Z,31.80
2018-10-06T12:22:27.305Z,31.00
2018-10-06T12:24:55.595Z,29.10
2018-10-06T12:27:23.827Z,27.70
2018-10-06T12:29:52.089Z,27.50
2018-10-06T12:32:20.342Z,26.20
2018-10-06T12:34:48.689Z,26.80
2018-10-06T12:37:16.889Z,28.70
2018-10-06T12:39:45.152Z,28.60
2018-10-06T12:42:13.534Z,29.40
2018-10-06T12:44:41.761Z,29.70
2018-10-06T12:47:10.073Z,29.90
2018-10-06T12:49:38.335Z,29.00
2018-10-06T12:52:06.647Z,28.10
2018-10-06T12:54:34.925Z,27.20
2018-10-06T12:57:03.193Z,26.60
2018-10-06T12:59:31.731Z,25.90
2018-10-06T13:01:59.983Z,25.20
2018-10-06T13:04:28.285Z,25.80
2018-10-06T13:06:56.572Z,26.60
2018-10-06T13:09:24.808Z,27.90
2018-10-06T13:11:53.098Z,30.00
2018-10-06T13:14:21.360Z,30.80
2018-10-06T13:16:49.652Z,30.40
2018-10-06T13:19:17.904Z,29.00
2018-10-06T13:21:46.186Z,28.60
2018-10-06T13:24:14.432Z,27.40
2018-10-06T13:26:42.700Z,28.30
2018-10-06T13:29:11.004Z,30.10
2018-10-06T13:31:39.297Z,31.00
2018-10-06T13:34:07.594Z,31.40
2018-10-06T13:36:35.897Z,32.60
2018-10-06T13:39:05.387Z,34.40
2018-10-06T13:41:35.096Z,36.20
2018-10-06T13:44:03.387Z,35.20
2018-10-06T13:46:31.723Z,34.70
2018-10-06T13:48:59.985Z,33.10
2018-10-06T13:51:28.261Z,33.20
2018-10-06T13:53:56.567Z,30.50
2018-10-06T13:56:24.938Z,30.90
2018-10-06T13:58:53.289Z,30.50
2018-10-06T14:01:21.668Z,30.50
2018-10-06T14:03:50.084Z,30.00
2018-10-06T14:06:18.447Z,28.80
2018-10-06T14:08:46.853Z,28.40
2018-10-06T14:11:15.225Z,28.20
2018-10-06T14:13:43.627Z,28.40
2018-10-06T14:16:12.093Z,28.30
2018-10-06T14:18:40.467Z,28.10
2018-10-06T14:21:08.725Z,30.20
2018-10-06T14:23:37.779Z,31.70
2018-10-06T14:26:06.162Z,30.30
2018-10-06T14:28:34.456Z,30.10
2018-10-06T14:31:02.728Z,30.40
2018-10-06T14:33:31.007Z,30.70
2018-10-06T14:35:59.446Z,29.70
2018-10-06T14:38:27.808Z,31.10
2018-10-06T14:40:56.453Z,30.70
2018-10-06T14:43:24.744Z,32.70
2018-10-06T14:45:53.047Z,33.60
2018-10-06T14:48:21.420Z,34.30
2018-10-06T14:50:49.879Z,34.60
2018-10-06T14:53:18.924Z,33.00
2018-10-06T14:55:47.269Z,33.80
2018-10-06T14:58:15.845Z,33.40
2018-10-06T15:00:44.451Z,32.10
2018-10-06T15:03:12.748Z,32.40
2018-10-06T15:05:41.341Z,33.80
2018-10-06T15:08:10.163Z,34.80
2018-10-06T15:10:40.317Z,35.10
2018-10-06T15:13:08.589Z,34.50
2018-10-06T15:15:36.908Z,34.70
2018-10-06T15:18:05.269Z,33.70
2018-10-06T15:20:33.659Z,31.90
2018-10-06T15:23:01.989Z,30.50
2018-10-06T15:25:30.253Z,30.20
2018-10-06T15:27:58.920Z,29.50
2018-10-06T15:30:27.326Z,30.20
2018-10-06T15:32:55.872Z,30.90
2018-10-06T15:35:24.110Z,31.00
2018-10-06T15:37:52.448Z,30.80
2018-10-06T15:40:20.660Z,30.50
2018-10-06T15:42:49.027Z,30.50
2018-10-06T15:45:17.478Z,28.70
2018-10-06T15:47:45.740Z,28.20
2018-10-06T15:50:15.266Z,26.90
2018-10-06T15:52:47.016Z,26.40
2018-10-06T15:55:16.316Z,25.90
2018-10-06T15:57:44.660Z,24.00
2018-10-06T16:00:13.442Z,23.00
2018-10-06T16:02:43.358Z,22.30
2018-10-06T16:05:13.244Z,21.70
2018-10-06T16:07:41.886Z,21.00
2018-10-06T16:10:10.164Z,20.40
2018-10-06T16:12:38.428Z,20.00
2018-10-06T16:15:06.712Z,19.80
2018-10-06T16:17:35.435Z,19.60
2018-10-06T16:20:04.023Z,19.40
2018-10-06T16:22:34.352Z,19.20
2018-10-06T16:25:02.690Z,19.00
2018-10-06T16:27:31.087Z,19.00
2018-10-06T16:29:59.431Z,18.70
2018-10-06T16:32:27.680Z,18.40
2018-10-06T16:35:01.571Z,18.40
2018-10-06T16:37:29.937Z,18.20
2018-10-06T16:39:58.231Z,18.00
2018-10-06T16:42:27.336Z,17.90
2018-10-06T16:44:56.284Z,17.90
2018-10-06T16:47:24.591Z,17.80
2018-10-06T16:49:55.293Z,17.70
2018-10-06T16:52:23.606Z,17.70
2018-10-06T16:54:54.148Z,17.70
2018-10-06T16:57:23.116Z,17.60
2018-10-06T16:59:52.015Z,17.50
2018-10-06T17:02:20.317Z,17.40
2018-10-06T17:04:51.640Z,17.30
2018-10-06T17:07:22.756Z,17.30
2018-10-06T17:09:52.033Z,17.20
2018-10-06T17:12:20.586Z,17.20
2018-10-06T17:14:51.560Z,17.10
2018-10-06T17:17:20.701Z,17.00
2018-10-06T17:19:48.982Z,16.90
2018-10-06T17:22:17.641Z,16.80
2018-10-06T17:24:45.922Z,16.70
2018-10-06T17:27:15.114Z,16.70
2018-10-06T17:29:43.538Z,16.70
2018-10-06T17:32:11.849Z,16.60
2018-10-06T17:34:40.107Z,16.50
2018-10-06T17:37:10.575Z,16.40
2018-10-06T17:39:39.784Z,16.30
2018-10-06T17:42:08.070Z,16.20
2018-10-06T17:44:37.149Z,16.10
2018-10-06T17:47:05.463Z,16.00
2018-10-06T17:49:33.817Z,15.70
2018-10-06T17:52:02.381Z,15.60
2018-10-06T17:54:30.906Z,15.40
2018-10-06T17:56:59.332Z,15.30
2018-10-06T17:59:27.887Z,15.30
2018-10-06T18:01:56.830Z,15.20
2018-10-06T18:04:25.382Z,15.30
2018-10-06T18:06:53.880Z,15.30
2018-10-06T18:09:22.330Z,15.30
2018-10-06T18:11:50.979Z,15.10
2018-10-06T18:14:19.427Z,15.00
2018-10-06T18:16:47.885Z,14.90
2018-10-06T18:19:16.339Z,14.80
2018-10-06T18:21:44.694Z,14.60
2018-10-06T18:24:13.079Z,14.50
2018-10-06T18:26:42.824Z,14.40
2018-10-06T18:29:11.543Z,14.30
2018-10-06T18:31:40.092Z,14.20
2018-10-06T18:34:08.892Z,14.10
2018-10-06T18:36:37.651Z,14.00
2018-10-06T18:39:06.648Z,13.90
2018-10-06T18:41:35.443Z,13.90
2018-10-06T18:44:04.135Z,13.90
2018-10-06T18:46:32.839Z,13.80
2018-10-06T18:49:01.688Z,13.70
2018-10-06T18:51:30.190Z,13.70
2018-10-06T18:53:58.722Z,13.60
2018-10-06T18:56:27.235Z,13.60
2018-10-06T18:58:55.629Z,13.60
2018-10-06T19:01:24.025Z,13.70
2018-10-06T19:03:52.539Z,13.80
2018-10-06T19:06:21.039Z,13.70
2018-10-06T19:08:49.641Z,13.80
2018-10-06T19:11:18.247Z,13.80
2018-10-06T19:13:46.713Z,13.90
2018-10-06T19:16:15.401Z,13.80
2018-10-06T19:18:43.854Z,13.80
2018-10-06T19:21:12.397Z,13.80
2018-10-06T19:23:40.886Z,13.70
2018-10-06T19:26:20.927Z,13.70
2018-10-06T19:29:00.505Z,13.70
2018-10-06T19:31:28.917Z,13.60
2018-10-06T19:33:57.523Z,13.60
2018-10-06T19:36:25.962Z,13.90
2018-10-06T19:39:01.157Z,14.00
2018-10-06T19:41:29.860Z,14.10
2018-10-06T19:43:58.274Z,14.10
2018-10-06T19:46:26.870Z,14.00
2018-10-06T19:48:55.310Z,13.90
2018-10-06T19:51:23.848Z,13.90
2018-10-06T19:53:52.300Z,14.00
2018-10-06T19:56:20.782Z,13.80
2018-10-06T19:58:49.314Z,13.70
2018-10-06T20:01:28.572Z,13.60
2018-10-06T20:03:57.119Z,13.50
2018-10-06T20:06:25.637Z,13.60
2018-10-06T20:08:54.275Z,13.60
2018-10-06T20:11:22.853Z,13.40
2018-10-06T20:13:51.367Z,13.20
2018-10-06T20:16:19.873Z,13.20
2018-10-06T20:18:48.400Z,13.10
2018-10-06T20:21:16.836Z,13.10
2018-10-06T20:23:45.328Z,13.00
2018-10-06T20:26:13.944Z,12.90
2018-10-06T20:28:42.641Z,12.80
2018-10-06T20:31:11.189Z,12.80
2018-10-06T20:33:39.797Z,12.70
2018-10-06T20:36:08.390Z,12.80
2018-10-06T20:38:37.525Z,12.80
2018-10-06T20:41:06.538Z,12.70
2018-10-06T20:43:35.228Z,12.80
2018-10-06T20:46:03.924Z,12.80
2018-10-06T20:48:32.342Z,12.90
2018-10-06T20:51:01.055Z,12.90
2018-10-06T20:53:29.603Z,12.90
2018-10-06T20:55:58.135Z,12.90
2018-10-06T20:58:27.262Z,12.90
2018-10-06T21:00:55.714Z,13.00
2018-10-06T21:03:24.104Z,13.00
2018-10-06T21:05:52.498Z,13.10
2018-10-06T21:08:21.072Z,13.00
2018-10-06T21:10:49.688Z,12.90
2018-10-06T21:13:18.414Z,12.90
2018-10-06T21:15:46.860Z,12.90
2018-10-06T21:18:15.348Z,12.90
2018-10-06T21:20:43.796Z,12.90
2018-10-06T21:23:12.212Z,12.90
2018-10-06T21:25:40.649Z,12.90
2018-10-06T21:28:09.131Z,12.80
2018-10-06T21:30:37.767Z,12.80
2018-10-06T21:33:06.317Z,12.80
2018-10-06T21:35:34.877Z,12.90
2018-10-06T21:38:03.505Z,13.00
2018-10-06T21:40:32.133Z,13.00
2018-10-06T21:43:00.787Z,13.00
2018-10-06T21:45:29.148Z,13.00
2018-10-06T21:47:57.537Z,13.00
2018-10-06T21:50:25.943Z,13.00
2018-10-06T21:52:54.346Z,13.00
2018-10-06T21:55:22.784Z,13.00
2018-10-06T21:57:51.823Z,13.00
2018-10-06T22:00:20.295Z,13.00
2018-10-06T22:02:48.738Z,13.00
2018-10-06T22:05:17.226Z,13.00
2018-10-06T22:07:45.680Z,13.10
2018-10-06T22:10:14.069Z,13.10
2018-10-06T22:12:42.485Z,13.20
2018-10-06T22:15:10.959Z,13.20
2018-10-06T22:17:39.480Z,13.20
2018-10-06T22:20:07.968Z,13.30
2018-10-06T22:22:36.380Z,13.30
2018-10-06T22:25:04.794Z,13.30
2018-10-06T22:27:33.284Z,13.30
2018-10-06T22:30:01.722Z,13.40
2018-10-06T22:32:30.205Z,13.50
2018-10-06T22:34:58.697Z,13.50
2018-10-06T22:37:27.103Z,13.60
2018-10-06T22:39:55.572Z,13.60
2018-10-06T22:42:23.961Z,13.70
2018-10-06T22:44:52.452Z,13.80
2018-10-06T22:47:20.868Z,13.90
2018-10-06T22:49:49.425Z,13.90
2018-10-06T22:52:17.870Z,14.00
2018-10-06T22:54:46.377Z,14.00
2018-10-06T22:57:14.801Z,14.00
2018-10-06T22:59:43.309Z,13.90
2018-10-06T23:02:11.753Z,13.90
2018-10-06T23:04:40.529Z,13.80
2018-10-06T23:07:09.625Z,13.70
2018-10-06T23:09:38.753Z,13.70
2018-10-06T23:12:07.233Z,13.70
2018-10-06T23:14:35.701Z,13.70
2018-10-06T23:17:04.187Z,13.70
2018-10-06T23:19:32.714Z,13.70
2018-10-06T23:22:01.153Z,13.80
2018-10-06T23:24:29.571Z,13.90
2018-10-06T23:26:58.059Z,13.70
2018-10-06T23:29:26.553Z,13.60
2018-10-06T23:31:55.018Z,13.50
2018-10-06T23:34:23.410Z,13.50
2018-10-06T23:36:51.914Z,13.70
2018-10-06T23:39:20.330Z,13.70
2018-10-06T23:41:48.726Z,13.80
2018-10-06T23:44:17.224Z,13.80
2018-10-06T23:46:45.785Z,13.80
2018-10-06T23:49:14.259Z,13.80
2018-10-06T23:51:42.734Z,13.70
2018-10-06T23:54:11.136Z,13.70
2018-10-06T23:56:39.508Z,13.80
2018-10-06T23:59:08.248Z,13.70
